sensor_id;sensor_type;location;lat;lon;timestamp;temperature;humidity
48212;DHT22;34000;48.772;9.162;2022-10-22T00:00:23;15.50;80.30
48212;DHT22;34000;48.772;9.162;2022-10-22T00:02:49;15.40;80.60
48212;DHT22;34000;48.772;9.162;2022-10-22T00:05:14;15.30;80.80
48212;DHT22;34000;48.772;9.162;2022-10-22T00:07:40;15.30;81.00
48212;DHT22;34000;48.772;9.162;2022-10-22T00:10:07;15.30;81.20
48212;DHT22;34000;48.772;9.162;2022-10-22T00:12:32;15.30;81.30
48212;DHT22;34000;48.772;9.162;2022-10-22T00:14:58;15.30;81.50
48212;DHT22;34000;48.772;9.162;2022-10-22T00:17:24;15.20;81.60
48212;DHT22;34000;48.772;9.162;2022-10-22T00:19:49;15.20;81.70
48212;DHT22;34000;48.772;9.162;2022-10-22T00:22:15;15.20;81.80
48212;DHT22;34000;48.772;9.162;2022-10-22T00:24:41;15.20;81.90
48212;DHT22;34000;48.772;9.162;2022-10-22T00:27:09;15.20;82.00
48212;DHT22;34000;48.772;9.162;2022-10-22T00:29:35;15.20;82.00
48212;DHT22;34000;48.772;9.162;2022-10-22T00:32:01;15.20;82.00
48212;DHT22;34000;48.772;9.162;2022-10-22T00:34:27;15.30;82.00
48212;DHT22;34000;48.772;9.162;2022-10-22T00:36:52;15.30;81.90
48212;DHT22;34000;48.772;9.162;2022-10-22T00:39:20;15.40;82.00
48212;DHT22;34000;48.772;9.162;2022-10-22T00:41:47;15.40;81.80
48212;DHT22;34000;48.772;9.162;2022-10-22T00:47:17;15.50;81.80
48212;DHT22;34000;48.772;9.162;2022-10-22T00:49:45;15.50;81.70
48212;DHT22;34000;48.772;9.162;2022-10-22T00:52:12;15.60;81.60
48212;DHT22;34000;48.772;9.162;2022-10-22T00:54:38;15.60;81.50
48212;DHT22;34000;48.772;9.162;2022-10-22T00:57:04;15.60;81.30
48212;DHT22;34000;48.772;9.162;2022-10-22T00:59:30;15.60;81.20
48212;DHT22;34000;48.772;9.162;2022-10-22T01:01:56;15.60;81.20
48212;DHT22;34000;48.772;9.162;2022-10-22T01:04:22;15.60;81.30
48212;DHT22;34000;48.772;9.162;2022-10-22T01:06:48;15.60;81.40
48212;DHT22;34000;48.772;9.162;2022-10-22T01:09:35;15.60;81.50
48212;DHT22;34000;48.772;9.162;2022-10-22T01:15:13;15.60;81.40
48212;DHT22;34000;48.772;9.162;2022-10-22T01:25:40;15.50;81.60
48212;DHT22;34000;48.772;9.162;2022-10-22T01:31:25;15.50;81.70
48212;DHT22;34000;48.772;9.162;2022-10-22T01:33:53;15.60;81.70
48212;DHT22;34000;48.772;9.162;2022-10-22T01:36:20;15.60;81.60
48212;DHT22;34000;48.772;9.162;2022-10-22T01:38:46;15.60;81.50
48212;DHT22;34000;48.772;9.162;2022-10-22T01:41:11;15.70;81.40
48212;DHT22;34000;48.772;9.162;2022-10-22T01:43:37;15.70;81.30
48212;DHT22;34000;48.772;9.162;2022-10-22T01:46:05;15.80;81.20
48212;DHT22;34000;48.772;9.162;2022-10-22T01:48:57;15.80;81.20
48212;DHT22;34000;48.772;9.162;2022-10-22T01:51:32;15.80;81.10
48212;DHT22;34000;48.772;9.162;2022-10-22T01:57:27;15.90;80.80
48212;DHT22;34000;48.772;9.162;2022-10-22T02:00:04;15.90;80.90
48212;DHT22;34000;48.772;9.162;2022-10-22T02:07:53;16.00;80.50
48212;DHT22;34000;48.772;9.162;2022-10-22T02:10:20;16.00;80.50
48212;DHT22;34000;48.772;9.162;2022-10-22T02:12:53;16.10;80.50
48212;DHT22;34000;48.772;9.162;2022-10-22T02:15:21;16.10;80.30
48212;DHT22;34000;48.772;9.162;2022-10-22T02:17:49;16.10;80.20
48212;DHT22;34000;48.772;9.162;2022-10-22T02:20:18;16.10;80.20
48212;DHT22;34000;48.772;9.162;2022-10-22T02:22:46;16.10;80.20
48212;DHT22;34000;48.772;9.162;2022-10-22T02:25:12;16.00;80.10
48212;DHT22;34000;48.772;9.162;2022-10-22T02:28:03;16.00;80.20
48212;DHT22;34000;48.772;9.162;2022-10-22T02:30:30;15.90;80.20
48212;DHT22;34000;48.772;9.162;2022-10-22T02:35:29;15.90;80.50
48212;DHT22;34000;48.772;9.162;2022-10-22T02:37:56;15.90;80.50
48212;DHT22;34000;48.772;9.162;2022-10-22T02:40:23;15.90;80.50
48212;DHT22;34000;48.772;9.162;2022-10-22T02:42:50;15.90;80.40
48212;DHT22;34000;48.772;9.162;2022-10-22T02:45:17;15.80;80.40
48212;DHT22;34000;48.772;9.162;2022-10-22T02:47:43;15.80;80.40
48212;DHT22;34000;48.772;9.162;2022-10-22T02:50:09;15.80;80.60
48212;DHT22;34000;48.772;9.162;2022-10-22T02:52:35;15.80;80.60
48212;DHT22;34000;48.772;9.162;2022-10-22T02:55:01;15.70;80.60
48212;DHT22;34000;48.772;9.162;2022-10-22T02:57:27;15.70;80.60
48212;DHT22;34000;48.772;9.162;2022-10-22T02:59:52;15.70;80.70
48212;DHT22;34000;48.772;9.162;2022-10-22T03:02:18;15.70;80.60
48212;DHT22;34000;48.772;9.162;2022-10-22T03:04:43;15.70;80.60
48212;DHT22;34000;48.772;9.162;2022-10-22T03:07:09;15.70;80.60
48212;DHT22;34000;48.772;9.162;2022-10-22T03:09:35;15.70;80.50
48212;DHT22;34000;48.772;9.162;2022-10-22T03:12:00;15.70;80.40
48212;DHT22;34000;48.772;9.162;2022-10-22T03:14:26;15.70;80.30
48212;DHT22;34000;48.772;9.162;2022-10-22T03:16:51;15.70;80.30
48212;DHT22;34000;48.772;9.162;2022-10-22T03:19:17;15.70;80.30
48212;DHT22;34000;48.772;9.162;2022-10-22T03:21:59;15.70;80.20
48212;DHT22;34000;48.772;9.162;2022-10-22T03:24:29;15.70;80.30
48212;DHT22;34000;48.772;9.162;2022-10-22T03:26:55;15.70;80.20
48212;DHT22;34000;48.772;9.162;2022-10-22T03:29:22;15.70;80.10
48212;DHT22;34000;48.772;9.162;2022-10-22T03:31:51;15.70;80.10
48212;DHT22;34000;48.772;9.162;2022-10-22T03:34:16;15.70;80.10
48212;DHT22;34000;48.772;9.162;2022-10-22T03:36:42;15.70;80.10
48212;DHT22;34000;48.772;9.162;2022-10-22T03:39:11;15.70;79.90
48212;DHT22;34000;48.772;9.162;2022-10-22T03:41:37;15.70;79.90
48212;DHT22;34000;48.772;9.162;2022-10-22T03:44:03;15.70;79.90
48212;DHT22;34000;48.772;9.162;2022-10-22T03:46:29;15.70;79.90
48212;DHT22;34000;48.772;9.162;2022-10-22T03:48:55;15.70;79.90
48212;DHT22;34000;48.772;9.162;2022-10-22T03:51:20;15.70;79.90
48212;DHT22;34000;48.772;9.162;2022-10-22T03:53:46;15.70;79.80
48212;DHT22;34000;48.772;9.162;2022-10-22T03:56:12;15.70;79.90
48212;DHT22;34000;48.772;9.162;2022-10-22T03:58:39;15.80;79.90
48212;DHT22;34000;48.772;9.162;2022-10-22T04:01:09;15.80;79.80
48212;DHT22;34000;48.772;9.162;2022-10-22T04:03:35;15.70;79.80
48212;DHT22;34000;48.772;9.162;2022-10-22T04:06:07;15.70;79.80
48212;DHT22;34000;48.772;9.162;2022-10-22T04:08:33;15.70;79.80
48212;DHT22;34000;48.772;9.162;2022-10-22T04:10:59;15.70;80.40
48212;DHT22;34000;48.772;9.162;2022-10-22T04:13:24;15.70;79.90
48212;DHT22;34000;48.772;9.162;2022-10-22T04:15:50;15.70;79.90
48212;DHT22;34000;48.772;9.162;2022-10-22T04:18:20;15.80;80.50
48212;DHT22;34000;48.772;9.162;2022-10-22T04:20:46;15.80;79.80
48212;DHT22;34000;48.772;9.162;2022-10-22T04:23:12;15.80;79.80
48212;DHT22;34000;48.772;9.162;2022-10-22T04:25:38;15.80;79.60
48212;DHT22;34000;48.772;9.162;2022-10-22T04:28:08;15.80;79.60
48212;DHT22;34000;48.772;9.162;2022-10-22T04:30:35;15.80;79.50
48212;DHT22;34000;48.772;9.162;2022-10-22T04:33:01;15.80;79.50
48212;DHT22;34000;48.772;9.162;2022-10-22T04:35:27;15.80;79.40
48212;DHT22;34000;48.772;9.162;2022-10-22T04:37:54;15.80;79.30
48212;DHT22;34000;48.772;9.162;2022-10-22T04:40:20;15.80;79.30
48212;DHT22;34000;48.772;9.162;2022-10-22T04:42:45;15.70;79.30
48212;DHT22;34000;48.772;9.162;2022-10-22T04:45:11;15.70;79.30
48212;DHT22;34000;48.772;9.162;2022-10-22T04:47:36;15.60;79.30
48212;DHT22;34000;48.772;9.162;2022-10-22T04:50:02;15.60;79.30
48212;DHT22;34000;48.772;9.162;2022-10-22T04:52:28;15.60;79.30
48212;DHT22;34000;48.772;9.162;2022-10-22T04:54:55;15.60;79.40
48212;DHT22;34000;48.772;9.162;2022-10-22T04:57:20;15.60;79.40
48212;DHT22;34000;48.772;9.162;2022-10-22T04:59:46;15.60;79.30
48212;DHT22;34000;48.772;9.162;2022-10-22T05:02:11;15.60;79.20
48212;DHT22;34000;48.772;9.162;2022-10-22T05:04:37;15.70;79.20
48212;DHT22;34000;48.772;9.162;2022-10-22T05:07:02;15.70;79.00
48212;DHT22;34000;48.772;9.162;2022-10-22T05:09:28;15.70;78.80
48212;DHT22;34000;48.772;9.162;2022-10-22T05:11:54;15.70;78.70
48212;DHT22;34000;48.772;9.162;2022-10-22T05:14:23;15.70;78.70
48212;DHT22;34000;48.772;9.162;2022-10-22T05:16:50;15.60;78.80
48212;DHT22;34000;48.772;9.162;2022-10-22T05:19:25;15.60;78.80
48212;DHT22;34000;48.772;9.162;2022-10-22T05:21:52;15.60;78.80
48212;DHT22;34000;48.772;9.162;2022-10-22T05:24:18;15.60;78.90
48212;DHT22;34000;48.772;9.162;2022-10-22T05:26:43;15.60;78.90
48212;DHT22;34000;48.772;9.162;2022-10-22T05:29:09;15.60;78.80
48212;DHT22;34000;48.772;9.162;2022-10-22T05:31:34;15.60;78.80
48212;DHT22;34000;48.772;9.162;2022-10-22T05:34:00;15.60;78.70
48212;DHT22;34000;48.772;9.162;2022-10-22T05:36:26;15.60;78.70
48212;DHT22;34000;48.772;9.162;2022-10-22T05:38:52;15.70;78.70
48212;DHT22;34000;48.772;9.162;2022-10-22T05:41:20;15.70;78.60
48212;DHT22;34000;48.772;9.162;2022-10-22T05:43:46;15.70;78.50
48212;DHT22;34000;48.772;9.162;2022-10-22T05:46:18;15.70;78.40
48212;DHT22;34000;48.772;9.162;2022-10-22T05:48:47;15.70;78.40
48212;DHT22;34000;48.772;9.162;2022-10-22T05:51:13;15.70;78.30
48212;DHT22;34000;48.772;9.162;2022-10-22T05:53:40;15.70;78.30
48212;DHT22;34000;48.772;9.162;2022-10-22T05:56:15;15.80;78.30
48212;DHT22;34000;48.772;9.162;2022-10-22T05:58:42;15.80;78.20
48212;DHT22;34000;48.772;9.162;2022-10-22T06:01:17;15.80;78.20
48212;DHT22;34000;48.772;9.162;2022-10-22T06:03:44;15.80;78.20
48212;DHT22;34000;48.772;9.162;2022-10-22T06:06:20;15.80;78.20
48212;DHT22;34000;48.772;9.162;2022-10-22T06:08:48;15.80;78.10
48212;DHT22;34000;48.772;9.162;2022-10-22T06:11:15;15.80;78.10
48212;DHT22;34000;48.772;9.162;2022-10-22T06:13:43;15.80;78.10
48212;DHT22;34000;48.772;9.162;2022-10-22T06:16:09;15.90;78.00
48212;DHT22;34000;48.772;9.162;2022-10-22T06:18:34;15.90;78.00
48212;DHT22;34000;48.772;9.162;2022-10-22T06:21:08;15.90;78.00
48212;DHT22;34000;48.772;9.162;2022-10-22T06:23:34;15.90;77.90
48212;DHT22;34000;48.772;9.162;2022-10-22T06:26:00;15.90;77.80
48212;DHT22;34000;48.772;9.162;2022-10-22T06:28:27;15.90;77.80
48212;DHT22;34000;48.772;9.162;2022-10-22T06:30:52;15.90;77.70
48212;DHT22;34000;48.772;9.162;2022-10-22T06:33:18;15.90;77.80
48212;DHT22;34000;48.772;9.162;2022-10-22T06:35:44;15.90;77.80
48212;DHT22;34000;48.772;9.162;2022-10-22T06:38:10;15.90;77.80
48212;DHT22;34000;48.772;9.162;2022-10-22T06:40:35;15.90;77.70
48212;DHT22;34000;48.772;9.162;2022-10-22T06:43:01;16.00;77.70
48212;DHT22;34000;48.772;9.162;2022-10-22T06:45:27;16.00;77.60
48212;DHT22;34000;48.772;9.162;2022-10-22T06:47:52;16.00;77.50
48212;DHT22;34000;48.772;9.162;2022-10-22T06:50:18;16.10;77.50
48212;DHT22;34000;48.772;9.162;2022-10-22T06:52:44;16.10;78.00
48212;DHT22;34000;48.772;9.162;2022-10-22T06:55:09;16.10;77.40
48212;DHT22;34000;48.772;9.162;2022-10-22T06:57:35;16.20;77.30
48212;DHT22;34000;48.772;9.162;2022-10-22T07:00:01;16.20;77.20
48212;DHT22;34000;48.772;9.162;2022-10-22T07:02:26;16.30;77.20
48212;DHT22;34000;48.772;9.162;2022-10-22T07:04:52;16.40;77.10
48212;DHT22;34000;48.772;9.162;2022-10-22T07:07:17;16.40;76.90
48212;DHT22;34000;48.772;9.162;2022-10-22T07:09:43;16.40;76.70
48212;DHT22;34000;48.772;9.162;2022-10-22T07:12:11;16.50;76.70
48212;DHT22;34000;48.772;9.162;2022-10-22T07:14:38;16.60;76.50
48212;DHT22;34000;48.772;9.162;2022-10-22T07:17:03;16.60;76.30
48212;DHT22;34000;48.772;9.162;2022-10-22T07:19:29;16.70;76.10
48212;DHT22;34000;48.772;9.162;2022-10-22T07:21:56;16.80;76.10
48212;DHT22;34000;48.772;9.162;2022-10-22T07:24:21;16.80;76.00
48212;DHT22;34000;48.772;9.162;2022-10-22T07:26:47;16.90;75.90
48212;DHT22;34000;48.772;9.162;2022-10-22T07:29:13;16.90;75.70
48212;DHT22;34000;48.772;9.162;2022-10-22T07:31:40;17.00;75.60
48212;DHT22;34000;48.772;9.162;2022-10-22T07:34:06;16.90;75.40
48212;DHT22;34000;48.772;9.162;2022-10-22T07:36:31;17.00;75.60
48212;DHT22;34000;48.772;9.162;2022-10-22T07:38:58;17.00;75.50
48212;DHT22;34000;48.772;9.162;2022-10-22T07:41:25;17.00;75.40
48212;DHT22;34000;48.772;9.162;2022-10-22T07:43:51;17.00;75.40
48212;DHT22;34000;48.772;9.162;2022-10-22T07:46:17;17.10;75.30
48212;DHT22;34000;48.772;9.162;2022-10-22T07:48:42;17.10;75.20
48212;DHT22;34000;48.772;9.162;2022-10-22T07:51:08;17.10;75.20
48212;DHT22;34000;48.772;9.162;2022-10-22T07:53:34;17.10;75.20
48212;DHT22;34000;48.772;9.162;2022-10-22T07:56:00;17.10;75.30
48212;DHT22;34000;48.772;9.162;2022-10-22T07:58:26;17.20;75.20
48212;DHT22;34000;48.772;9.162;2022-10-22T08:00:57;17.20;75.10
48212;DHT22;34000;48.772;9.162;2022-10-22T08:03:23;17.30;75.20
48212;DHT22;34000;48.772;9.162;2022-10-22T08:05:48;17.40;75.00
48212;DHT22;34000;48.772;9.162;2022-10-22T08:08:15;17.40;74.80
48212;DHT22;34000;48.772;9.162;2022-10-22T08:10:41;17.40;74.80
48212;DHT22;34000;48.772;9.162;2022-10-22T08:13:07;17.50;74.80
48212;DHT22;34000;48.772;9.162;2022-10-22T08:15:33;17.80;75.50
48212;DHT22;34000;48.772;9.162;2022-10-22T08:17:59;18.00;74.20
48212;DHT22;34000;48.772;9.162;2022-10-22T08:20:24;18.20;73.90
48212;DHT22;34000;48.772;9.162;2022-10-22T08:22:50;18.20;73.30
48212;DHT22;34000;48.772;9.162;2022-10-22T08:25:17;18.20;73.30
48212;DHT22;34000;48.772;9.162;2022-10-22T08:27:43;18.20;73.30
48212;DHT22;34000;48.772;9.162;2022-10-22T08:32:35;18.40;72.90
48212;DHT22;34000;48.772;9.162;2022-10-22T08:37:27;19.20;72.70
48212;DHT22;34000;48.772;9.162;2022-10-22T08:39:52;20.60;71.80
48212;DHT22;34000;48.772;9.162;2022-10-22T08:50:55;27.90;55.00
48212;DHT22;34000;48.772;9.162;2022-10-22T08:53:30;28.00;55.00
48212;DHT22;34000;48.772;9.162;2022-10-22T08:55:56;28.50;52.00
48212;DHT22;34000;48.772;9.162;2022-10-22T09:00:53;29.70;50.60
48212;DHT22;34000;48.772;9.162;2022-10-22T09:06:11;31.20;48.80
48212;DHT22;34000;48.772;9.162;2022-10-22T09:08:38;31.50;47.30
48212;DHT22;34000;48.772;9.162;2022-10-22T09:13:44;32.30;44.90
48212;DHT22;34000;48.772;9.162;2022-10-22T09:16:15;32.80;45.40
48212;DHT22;34000;48.772;9.162;2022-10-22T09:18:51;33.20;44.70
48212;DHT22;34000;48.772;9.162;2022-10-22T09:24:00;34.00;42.30
48212;DHT22;34000;48.772;9.162;2022-10-22T09:26:27;34.10;40.90
48212;DHT22;34000;48.772;9.162;2022-10-22T09:28:52;34.30;41.30
48212;DHT22;34000;48.772;9.162;2022-10-22T09:31:18;34.80;40.60
48212;DHT22;34000;48.772;9.162;2022-10-22T09:33:46;34.90;39.40
48212;DHT22;34000;48.772;9.162;2022-10-22T09:36:20;35.10;39.40
48212;DHT22;34000;48.772;9.162;2022-10-22T09:38:55;35.50;38.70
48212;DHT22;34000;48.772;9.162;2022-10-22T09:41:27;35.90;38.50
48212;DHT22;34000;48.772;9.162;2022-10-22T09:46:27;36.50;38.00
48212;DHT22;34000;48.772;9.162;2022-10-22T09:51:26;37.60;35.30
48212;DHT22;34000;48.772;9.162;2022-10-22T09:54:07;37.50;35.40
48212;DHT22;34000;48.772;9.162;2022-10-22T09:56:40;37.60;35.50
48212;DHT22;34000;48.772;9.162;2022-10-22T09:59:13;37.30;34.00
48212;DHT22;34000;48.772;9.162;2022-10-22T10:01:40;37.00;34.20
48212;DHT22;34000;48.772;9.162;2022-10-22T10:04:08;36.90;34.60
48212;DHT22;34000;48.772;9.162;2022-10-22T10:06:35;37.00;34.20
48212;DHT22;34000;48.772;9.162;2022-10-22T10:09:14;37.40;34.30
48212;DHT22;34000;48.772;9.162;2022-10-22T10:12:15;38.00;33.70
48212;DHT22;34000;48.772;9.162;2022-10-22T10:17:59;38.90;33.00
48212;DHT22;34000;48.772;9.162;2022-10-22T10:25:41;40.00;31.80
48212;DHT22;34000;48.772;9.162;2022-10-22T10:31:51;40.90;31.00
48212;DHT22;34000;48.772;9.162;2022-10-22T10:39:33;41.30;30.20
48212;DHT22;34000;48.772;9.162;2022-10-22T10:42:10;42.40;51.30
48212;DHT22;34000;48.772;9.162;2022-10-22T10:44:57;42.30;30.20
48212;DHT22;34000;48.772;9.162;2022-10-22T10:47:45;42.30;32.40
48212;DHT22;34000;48.772;9.162;2022-10-22T12:11:19;34.50;30.10
48212;DHT22;34000;48.772;9.162;2022-10-22T12:16:38;34.80;30.10
48212;DHT22;34000;48.772;9.162;2022-10-22T12:21:47;35.20;30.20
48212;DHT22;34000;48.772;9.162;2022-10-22T12:24:16;35.30;30.10
48212;DHT22;34000;48.772;9.162;2022-10-22T12:26:41;35.00;30.10
48212;DHT22;34000;48.772;9.162;2022-10-22T12:29:13;34.40;30.40
48212;DHT22;34000;48.772;9.162;2022-10-22T12:31:40;33.70;30.60
48212;DHT22;34000;48.772;9.162;2022-10-22T12:34:06;33.10;31.50
48212;DHT22;34000;48.772;9.162;2022-10-22T12:36:33;32.80;32.00
48212;DHT22;34000;48.772;9.162;2022-10-22T12:39:08;32.70;32.00
48212;DHT22;34000;48.772;9.162;2022-10-22T12:41:36;32.50;31.70
48212;DHT22;34000;48.772;9.162;2022-10-22T12:44:04;32.30;31.80
48212;DHT22;34000;48.772;9.162;2022-10-22T12:46:32;32.10;31.80
48212;DHT22;34000;48.772;9.162;2022-10-22T12:49:04;31.70;31.70
48212;DHT22;34000;48.772;9.162;2022-10-22T12:51:31;31.60;32.00
48212;DHT22;34000;48.772;9.162;2022-10-22T12:54:01;31.40;31.90
48212;DHT22;34000;48.772;9.162;2022-10-22T12:56:31;31.20;31.90
48212;DHT22;34000;48.772;9.162;2022-10-22T12:59:04;30.90;32.00
48212;DHT22;34000;48.772;9.162;2022-10-22T13:04:12;30.80;32.00
48212;DHT22;34000;48.772;9.162;2022-10-22T13:06:44;30.30;32.40
48212;DHT22;34000;48.772;9.162;2022-10-22T13:09:22;30.20;32.60
48212;DHT22;34000;48.772;9.162;2022-10-22T13:11:55;30.10;32.60
48212;DHT22;34000;48.772;9.162;2022-10-22T13:14:28;30.10;32.80
48212;DHT22;34000;48.772;9.162;2022-10-22T13:17:17;30.20;32.80
48212;DHT22;34000;48.772;9.162;2022-10-22T13:22:33;30.20;33.00
48212;DHT22;34000;48.772;9.162;2022-10-22T13:30:37;29.50;32.70
48212;DHT22;34000;48.772;9.162;2022-10-22T13:33:23;29.20;33.00
48212;DHT22;34000;48.772;9.162;2022-10-22T13:35:51;28.90;33.40
48212;DHT22;34000;48.772;9.162;2022-10-22T13:38:19;28.80;33.70
48212;DHT22;34000;48.772;9.162;2022-10-22T13:40:45;28.70;33.70
48212;DHT22;34000;48.772;9.162;2022-10-22T13:43:12;28.60;33.80
48212;DHT22;34000;48.772;9.162;2022-10-22T13:45:38;28.50;34.00
48212;DHT22;34000;48.772;9.162;2022-10-22T13:48:04;28.30;34.10
48212;DHT22;34000;48.772;9.162;2022-10-22T13:50:29;28.20;34.10
48212;DHT22;34000;48.772;9.162;2022-10-22T13:52:57;28.00;34.20
48212;DHT22;34000;48.772;9.162;2022-10-22T13:55:25;27.80;34.60
48212;DHT22;34000;48.772;9.162;2022-10-22T13:57:55;27.70;34.80
48212;DHT22;34000;48.772;9.162;2022-10-22T14:00:24;27.60;35.00
48212;DHT22;34000;48.772;9.162;2022-10-22T14:02:52;27.60;35.00
48212;DHT22;34000;48.772;9.162;2022-10-22T14:05:19;27.40;34.90
48212;DHT22;34000;48.772;9.162;2022-10-22T14:07:45;27.30;35.10
48212;DHT22;34000;48.772;9.162;2022-10-22T14:10:16;27.10;35.30
48212;DHT22;34000;48.772;9.162;2022-10-22T14:12:42;27.10;35.40
48212;DHT22;34000;48.772;9.162;2022-10-22T14:15:11;27.10;35.50
48212;DHT22;34000;48.772;9.162;2022-10-22T14:17:38;27.10;35.60
48212;DHT22;34000;48.772;9.162;2022-10-22T14:20:04;27.00;35.60
48212;DHT22;34000;48.772;9.162;2022-10-22T14:22:30;26.80;35.90
48212;DHT22;34000;48.772;9.162;2022-10-22T14:24:55;26.70;35.90
48212;DHT22;34000;48.772;9.162;2022-10-22T14:32:15;26.70;36.00
48212;DHT22;34000;48.772;9.162;2022-10-22T14:34:42;26.20;36.60
48212;DHT22;34000;48.772;9.162;2022-10-22T14:37:18;26.00;36.70
48212;DHT22;34000;48.772;9.162;2022-10-22T14:39:45;25.80;36.70
48212;DHT22;34000;48.772;9.162;2022-10-22T14:42:12;25.70;37.70
48212;DHT22;34000;48.772;9.162;2022-10-22T14:44:39;25.60;37.20
48212;DHT22;34000;48.772;9.162;2022-10-22T14:47:05;25.60;37.50
48212;DHT22;34000;48.772;9.162;2022-10-22T14:49:30;25.50;37.50
48212;DHT22;34000;48.772;9.162;2022-10-22T14:51:56;25.50;37.90
48212;DHT22;34000;48.772;9.162;2022-10-22T14:54:22;25.50;38.30
48212;DHT22;34000;48.772;9.162;2022-10-22T14:56:47;25.40;37.90
48212;DHT22;34000;48.772;9.162;2022-10-22T14:59:13;25.40;38.20
48212;DHT22;34000;48.772;9.162;2022-10-22T15:01:38;25.40;38.50
48212;DHT22;34000;48.772;9.162;2022-10-22T15:04:04;25.20;38.50
48212;DHT22;34000;48.772;9.162;2022-10-22T15:06:30;25.10;38.50
48212;DHT22;34000;48.772;9.162;2022-10-22T15:08:56;25.00;38.60
48212;DHT22;34000;48.772;9.162;2022-10-22T15:11:21;24.80;38.80
48212;DHT22;34000;48.772;9.162;2022-10-22T15:13:47;24.80;39.00
48212;DHT22;34000;48.772;9.162;2022-10-22T15:16:14;24.70;39.00
48212;DHT22;34000;48.772;9.162;2022-10-22T15:18:40;24.70;39.20
48212;DHT22;34000;48.772;9.162;2022-10-22T15:21:18;24.60;39.30
48212;DHT22;34000;48.772;9.162;2022-10-22T15:23:44;24.50;39.50
48212;DHT22;34000;48.772;9.162;2022-10-22T15:26:11;24.50;39.50
48212;DHT22;34000;48.772;9.162;2022-10-22T15:28:38;24.50;39.80
48212;DHT22;34000;48.772;9.162;2022-10-22T15:31:05;24.40;39.80
48212;DHT22;34000;48.772;9.162;2022-10-22T15:33:30;24.40;40.00
48212;DHT22;34000;48.772;9.162;2022-10-22T15:35:56;24.30;40.20
48212;DHT22;34000;48.772;9.162;2022-10-22T15:38:26;24.20;40.40
48212;DHT22;34000;48.772;9.162;2022-10-22T15:41:00;24.20;40.90
48212;DHT22;34000;48.772;9.162;2022-10-22T15:43:26;24.10;41.10
48212;DHT22;34000;48.772;9.162;2022-10-22T15:48:35;23.90;41.60
48212;DHT22;34000;48.772;9.162;2022-10-22T15:51:06;23.90;41.70
48212;DHT22;34000;48.772;9.162;2022-10-22T15:53:31;23.90;42.10
48212;DHT22;34000;48.772;9.162;2022-10-22T15:55:57;23.70;42.30
48212;DHT22;34000;48.772;9.162;2022-10-22T15:58:22;23.60;42.70
48212;DHT22;34000;48.772;9.162;2022-10-22T16:00:48;23.60;43.00
48212;DHT22;34000;48.772;9.162;2022-10-22T16:03:13;23.50;43.30
48212;DHT22;34000;48.772;9.162;2022-10-22T16:05:39;23.30;43.80
48212;DHT22;34000;48.772;9.162;2022-10-22T16:08:05;23.20;44.50
48212;DHT22;34000;48.772;9.162;2022-10-22T16:10:30;23.10;44.90
48212;DHT22;34000;48.772;9.162;2022-10-22T16:12:56;22.90;45.70
48212;DHT22;34000;48.772;9.162;2022-10-22T16:15:21;22.80;46.50
48212;DHT22;34000;48.772;9.162;2022-10-22T16:17:47;22.60;47.00
48212;DHT22;34000;48.772;9.162;2022-10-22T16:20:12;22.50;47.50
48212;DHT22;34000;48.772;9.162;2022-10-22T16:22:38;22.40;47.80
48212;DHT22;34000;48.772;9.162;2022-10-22T16:25:04;22.30;48.10
48212;DHT22;34000;48.772;9.162;2022-10-22T16:27:29;22.10;48.10
48212;DHT22;34000;48.772;9.162;2022-10-22T16:29:55;22.10;48.50
48212;DHT22;34000;48.772;9.162;2022-10-22T16:32:21;22.00;48.70
48212;DHT22;34000;48.772;9.162;2022-10-22T16:34:47;21.90;49.10
48212;DHT22;34000;48.772;9.162;2022-10-22T16:37:13;21.80;49.20
48212;DHT22;34000;48.772;9.162;2022-10-22T16:39:38;21.70;49.50
48212;DHT22;34000;48.772;9.162;2022-10-22T16:42:04;21.60;49.60
48212;DHT22;34000;48.772;9.162;2022-10-22T16:44:30;21.50;49.70
48212;DHT22;34000;48.772;9.162;2022-10-22T16:46:55;21.50;50.10
48212;DHT22;34000;48.772;9.162;2022-10-22T16:49:21;21.40;50.20
48212;DHT22;34000;48.772;9.162;2022-10-22T16:51:47;21.30;50.30
48212;DHT22;34000;48.772;9.162;2022-10-22T16:54:12;21.20;50.40
48212;DHT22;34000;48.772;9.162;2022-10-22T16:56:39;21.20;50.40
48212;DHT22;34000;48.772;9.162;2022-10-22T16:59:05;21.20;50.60
48212;DHT22;34000;48.772;9.162;2022-10-22T17:01:31;21.20;50.70
48212;DHT22;34000;48.772;9.162;2022-10-22T17:04:00;21.20;50.80
48212;DHT22;34000;48.772;9.162;2022-10-22T17:06:26;21.20;50.90
48212;DHT22;34000;48.772;9.162;2022-10-22T17:08:51;21.10;50.80
48212;DHT22;34000;48.772;9.162;2022-10-22T17:11:23;21.10;50.80
48212;DHT22;34000;48.772;9.162;2022-10-22T17:13:52;21.10;51.00
48212;DHT22;34000;48.772;9.162;2022-10-22T17:16:20;21.10;51.00
48212;DHT22;34000;48.772;9.162;2022-10-22T17:18:46;21.00;51.10
48212;DHT22;34000;48.772;9.162;2022-10-22T17:21:13;21.00;51.20
48212;DHT22;34000;48.772;9.162;2022-10-22T17:23:39;20.90;51.40
48212;DHT22;34000;48.772;9.162;2022-10-22T17:26:06;20.90;51.50
48212;DHT22;34000;48.772;9.162;2022-10-22T17:28:34;20.90;51.70
48212;DHT22;34000;48.772;9.162;2022-10-22T17:31:06;20.80;51.80
48212;DHT22;34000;48.772;9.162;2022-10-22T17:33:33;20.70;51.90
48212;DHT22;34000;48.772;9.162;2022-10-22T17:35:59;20.70;51.90
48212;DHT22;34000;48.772;9.162;2022-10-22T17:38:26;20.70;51.90
48212;DHT22;34000;48.772;9.162;2022-10-22T17:40:52;20.70;52.10
48212;DHT22;34000;48.772;9.162;2022-10-22T17:43:17;20.60;52.20
48212;DHT22;34000;48.772;9.162;2022-10-22T17:45:43;20.60;52.30
48212;DHT22;34000;48.772;9.162;2022-10-22T17:48:09;20.60;52.40
48212;DHT22;34000;48.772;9.162;2022-10-22T17:50:39;20.60;52.40
48212;DHT22;34000;48.772;9.162;2022-10-22T17:53:04;20.60;52.50
48212;DHT22;34000;48.772;9.162;2022-10-22T17:55:30;20.50;52.50
48212;DHT22;34000;48.772;9.162;2022-10-22T17:57:55;20.50;52.50
48212;DHT22;34000;48.772;9.162;2022-10-22T18:00:21;20.50;52.70
48212;DHT22;34000;48.772;9.162;2022-10-22T18:02:47;20.40;53.20
48212;DHT22;34000;48.772;9.162;2022-10-22T18:05:13;20.40;52.70
48212;DHT22;34000;48.772;9.162;2022-10-22T18:07:38;20.40;52.70
48212;DHT22;34000;48.772;9.162;2022-10-22T18:10:04;20.30;52.70
48212;DHT22;34000;48.772;9.162;2022-10-22T18:12:30;20.30;53.30
48212;DHT22;34000;48.772;9.162;2022-10-22T18:14:56;20.30;52.80
48212;DHT22;34000;48.772;9.162;2022-10-22T18:17:21;20.30;52.80
48212;DHT22;34000;48.772;9.162;2022-10-22T18:19:47;20.20;52.80
48212;DHT22;34000;48.772;9.162;2022-10-22T18:22:13;20.20;52.80
48212;DHT22;34000;48.772;9.162;2022-10-22T18:24:39;20.20;53.00
48212;DHT22;34000;48.772;9.162;2022-10-22T18:27:05;20.20;53.00
48212;DHT22;34000;48.772;9.162;2022-10-22T18:29:30;20.20;53.20
48212;DHT22;34000;48.772;9.162;2022-10-22T18:31:56;20.20;53.30